Time;durP1;ratioP1;P1;durP2;ratioP2;P2;SDS_P1;SDS_P2;PMS_P1;PMS_P2;Temp;Humidity;BMP_temperature;BMP_pressure;BME280_temperature;BME280_humidity;BME280_pressure;Samples;Min_cycle;Max_cycle;Signal;HPM_P1;HPM_P2
2023/03/18 00:01:02;;;;;;;6.17;3.27;;;;;;;3.96;nan;-23927.09;5014554;28;20182;-73
2023/03/18 00:03:30;;;;;;;4.87;3.17;;;;;;;3.64;nan;-23917.81;5014907;28;20655;-73
2023/03/18 00:06:14;;;;;;;3.07;2.73;;;;;;;4.30;nan;-23936.50;5015220;28;20180;-74
2023/03/18 00:08:41;;;;;;;5.00;3.43;;;;;;;4.45;nan;-23940.91;5011409;28;20247;-73
2023/03/18 00:11:09;;;;;;;5.03;2.70;;;;;;;4.12;nan;-23931.34;5011225;28;20199;-72
2023/03/18 00:13:35;;;;;;;4.23;2.77;;;;;;;4.18;nan;-23933.06;5014497;28;20184;-72
2023/03/18 00:16:01;;;;;;;6.80;3.93;;;;;;;4.15;nan;-23932.22;5014314;28;20172;-73
2023/03/18 00:18:27;;;;;;;5.93;3.73;;;;;;;4.14;nan;-23931.94;5014525;28;20175;-75
2023/03/18 00:20:53;;;;;;;3.83;3.17;;;;;;;4.15;nan;-23932.34;5014261;28;20180;-72
2023/03/18 00:23:18;;;;;;;3.07;2.67;;;;;;;4.32;nan;-23937.06;5014729;28;20697;-72
2023/03/18 00:25:47;;;;;;;4.07;2.47;;;;;;;4.78;nan;-23950.16;5014542;28;20196;-72
2023/03/18 00:28:13;;;;;;;5.03;2.87;;;;;;;4.80;nan;-23950.72;5014032;28;20249;-73
2023/03/18 00:30:40;;;;;;;4.77;3.27;;;;;;;5.18;nan;-23961.38;5007734;28;20240;-72
2023/03/18 00:33:06;;;;;;;4.90;3.10;;;;;;;4.89;nan;-23953.13;5012711;28;20223;-71
2023/03/18 00:35:33;;;;;;;4.13;2.67;;;;;;;5.04;nan;-23957.41;5013731;28;20226;-73
2023/03/18 00:37:59;;;;;;;6.40;3.60;;;;;;;5.02;nan;-23956.84;5012545;28;20705;-74
2023/03/18 00:40:41;;;;;;;3.50;3.00;;;;;;;5.02;nan;-23956.69;5029259;28;20582;-72
2023/03/18 00:43:08;;;;;;;7.07;3.57;;;;;;;5.10;nan;-23959.13;5009001;28;20210;-72
2023/03/18 00:45:37;;;;;;;6.70;3.77;;;;;;;4.77;nan;-23949.72;5014227;28;20651;-71
2023/03/18 00:48:03;;;;;;;5.27;3.13;;;;;;;4.98;nan;-23955.69;5013908;28;20200;-73
2023/03/18 00:50:28;;;;;;;5.63;3.37;;;;;;;5.42;nan;-23967.94;5013951;28;20180;-73
2023/03/18 00:52:55;;;;;;;6.07;3.20;;;;;;;4.84;nan;-23951.84;5014170;28;20279;-74
2023/03/18 00:55:20;;;;;;;5.77;3.40;;;;;;;5.09;nan;-23958.81;5013426;28;20255;-73
2023/03/18 00:57:46;;;;;;;6.23;2.93;;;;;;;4.97;nan;-23955.28;5012571;28;20318;-71
2023/03/18 01:00:12;;;;;;;4.37;2.90;;;;;;;4.93;nan;-23954.28;5013529;28;20480;-72
2023/03/18 01:02:37;;;;;;;5.60;3.33;;;;;;;4.85;nan;-23952.16;5013492;28;20173;-74
2023/03/18 01:05:03;;;;;;;3.87;2.73;;;;;;;5.00;nan;-23956.25;5012036;28;20641;-73
2023/03/18 01:07:28;;;;;;;4.63;3.37;;;;;;;4.93;nan;-23954.13;5013378;28;20187;-70
2023/03/18 01:09:54;;;;;;;3.50;2.97;;;;;;;4.74;nan;-23948.88;5006947;28;20188;-73
2023/03/18 01:12:20;;;;;;;5.70;2.23;;;;;;;4.99;nan;-23956.00;5013332;28;20215;-72
2023/03/18 01:14:45;;;;;;;4.90;2.90;;;;;;;4.94;nan;-23954.56;5013622;28;20202;-71
2023/03/18 01:17:11;;;;;;;4.43;3.10;;;;;;;4.44;nan;-23940.63;5013404;28;20195;-70
2023/03/18 01:19:37;;;;;;;9.33;3.07;;;;;;;4.53;nan;-23942.91;5013381;28;20287;-74
2023/03/18 01:22:03;;;;;;;4.80;3.47;;;;;;;4.81;nan;-23951.00;5013204;28;20367;-72
2023/03/18 01:24:28;;;;;;;4.73;3.47;;;;;;;4.49;nan;-23941.75;5012905;28;20659;-70
2023/03/18 01:26:54;;;;;;;3.67;2.57;;;;;;;4.38;nan;-23938.91;5013366;28;20215;-72
2023/03/18 01:29:21;;;;;;;5.67;2.63;;;;;;;4.50;nan;-23942.03;5013294;28;20606;-72
2023/03/18 01:31:47;;;;;;;12.37;2.57;;;;;;;3.96;nan;-23926.94;5013147;28;20207;-73
2023/03/18 01:34:13;;;;;;;3.27;2.93;;;;;;;3.94;nan;-23926.38;5012908;28;20188;-73
2023/03/18 01:36:39;;;;;;;5.17;2.90;;;;;;;4.05;nan;-23929.38;5013137;28;20300;-73
2023/03/18 01:39:05;;;;;;;3.03;2.20;;;;;;;4.28;nan;-23936.06;5012741;28;20637;-72
2023/03/18 01:41:31;;;;;;;4.13;3.20;;;;;;;4.36;nan;-23938.34;5013012;28;20207;-74
2023/03/18 01:43:57;;;;;;;4.23;2.83;;;;;;;4.34;nan;-23937.78;5011654;28;20219;-74
2023/03/18 01:46:34;;;;;;;4.63;3.33;;;;;;;3.97;nan;-23927.38;5006409;28;20366;-74
2023/03/18 01:49:01;;;;;;;3.33;2.67;;;;;;;4.40;nan;-23939.34;5013530;28;20252;-72
2023/03/18 01:51:28;;;;;;;9.43;3.13;;;;;;;4.33;nan;-23937.34;5013201;28;20210;-70
2023/03/18 01:53:56;;;;;;;3.20;2.90;;;;;;;4.29;nan;-23936.34;5012708;28;20194;-71
2023/03/18 01:56:22;;;;;;;4.50;3.27;;;;;;;4.24;nan;-23934.78;5012558;28;20180;-71
2023/03/18 01:58:52;;;;;;;11.17;3.30;;;;;;;4.22;nan;-23934.34;5012655;28;20180;-72
2023/03/18 02:01:24;;;;;;;4.30;2.50;;;;;;;4.49;nan;-23941.75;5027735;28;20582;-70
2023/03/18 02:03:51;;;;;;;5.17;3.17;;;;;;;4.39;nan;-23939.19;5012661;28;20179;-72
2023/03/18 02:06:18;;;;;;;4.63;2.50;;;;;;;4.09;nan;-23930.50;5012845;28;20180;-73
2023/03/18 02:08:44;;;;;;;7.87;3.77;;;;;;;4.24;nan;-23934.91;5012613;28;20183;-73
2023/03/18 02:11:10;;;;;;;5.97;3.00;;;;;;;4.07;nan;-23929.94;5012376;28;20196;-73
2023/03/18 02:13:41;;;;;;;3.40;2.43;;;;;;;4.25;nan;-23935.06;5012518;28;20176;-72
2023/03/18 02:16:26;;;;;;;2.67;2.47;;;;;;;4.55;nan;-23943.59;5011887;28;20172;-74
2023/03/18 02:18:55;;;;;;;4.13;2.97;;;;;;;4.27;nan;-23935.78;5010953;28;20172;-72
2023/03/18 02:21:32;;;;;;;4.57;3.40;;;;;;;4.54;nan;-23943.19;5010531;28;20180;-72
2023/03/18 02:24:42;;;;;;;5.00;2.97;;;;;;;4.56;nan;-23943.75;5008924;28;20262;-72
2023/03/18 02:27:19;;;;;;;3.03;2.10;;;;;;;4.07;nan;-23929.94;5022348;28;20195;-71
2023/03/18 02:29:47;;;;;;;3.00;2.20;;;;;;;4.31;nan;-23936.78;5011917;28;20171;-70
2023/03/18 02:32:14;;;;;;;3.27;2.83;;;;;;;4.03;nan;-23928.94;5012099;28;20204;-74
2023/03/18 02:34:42;;;;;;;4.43;3.07;;;;;;;4.17;nan;-23932.78;5012232;28;20183;-70
2023/03/18 02:37:07;;;;;;;3.20;2.67;;;;;;;4.68;nan;-23947.31;5012264;28;20171;-72
2023/03/18 02:39:34;;;;;;;3.40;2.80;;;;;;;4.36;nan;-23938.19;5011666;28;20176;-72
2023/03/18 02:42:00;;;;;;;3.77;2.90;;;;;;;4.31;nan;-23936.91;5012021;28;20283;-72
2023/03/18 02:44:25;;;;;;;4.00;3.13;;;;;;;4.37;nan;-23938.63;5011750;28;20653;-72
2023/03/18 02:47:02;;;;;;;3.80;2.70;;;;;;;4.35;nan;-23937.91;5011811;28;20185;-73
2023/03/18 02:49:29;;;;;;;4.47;2.60;;;;;;;4.11;nan;-23931.22;5010851;28;20635;-70
2023/03/18 02:51:55;;;;;;;4.53;2.70;;;;;;;4.18;nan;-23933.06;5011574;28;20195;-73
2023/03/18 02:54:25;;;;;;;3.20;2.30;;;;;;;4.15;nan;-23932.34;5010885;28;20517;-73
2023/03/18 02:56:51;;;;;;;3.37;2.57;;;;;;;3.77;nan;-23921.69;5013731;28;20590;-73
2023/03/18 02:59:18;;;;;;;4.37;3.00;;;;;;;4.07;nan;-23930.06;5011723;28;20222;-72
2023/03/18 03:01:46;;;;;;;4.13;3.20;;;;;;;3.64;nan;-23917.81;5011602;28;20203;-71
2023/03/18 03:04:13;;;;;;;3.87;2.57;;;;;;;3.58;nan;-23916.25;5011141;28;20223;-69
2023/03/18 03:06:41;;;;;;;4.67;2.83;;;;;;;4.08;nan;-23930.38;5011637;28;20710;-72
2023/03/18 03:09:08;;;;;;;6.10;3.20;;;;;;;4.16;nan;-23932.63;5011485;28;20266;-71
2023/03/18 03:11:35;;;;;;;3.80;2.30;;;;;;;4.09;nan;-23930.66;5011439;28;20273;-72
2023/03/18 03:14:00;;;;;;;3.27;2.70;;;;;;;4.07;nan;-23929.94;5011832;28;20218;-72
2023/03/18 03:16:27;;;;;;;4.80;3.20;;;;;;;4.13;nan;-23931.66;5011564;28;20613;-71
2023/03/18 03:18:52;;;;;;;7.10;3.17;;;;;;;3.94;nan;-23926.53;5011336;28;20263;-72
2023/03/18 03:21:19;;;;;;;6.07;2.97;;;;;;;4.14;nan;-23931.94;5011234;28;20255;-71
2023/03/18 03:23:46;;;;;;;6.50;3.73;;;;;;;3.73;nan;-23920.53;5011689;28;20275;-72
2023/03/18 03:26:12;;;;;;;3.83;3.13;;;;;;;4.20;nan;-23933.63;5012740;28;20182;-72
2023/03/18 03:28:37;;;;;;;4.83;3.40;;;;;;;3.99;nan;-23927.81;5015385;28;20254;-70
2023/03/18 03:31:03;;;;;;;6.27;3.00;;;;;;;4.29;nan;-23936.19;5015461;28;20679;-72
2023/03/18 03:33:29;;;;;;;4.20;2.57;;;;;;;4.24;nan;-23934.91;5015214;28;20271;-72
2023/03/18 03:35:54;;;;;;;6.87;3.97;;;;;;;3.86;nan;-23924.25;5015264;28;20190;-70
2023/03/18 03:38:21;;;;;;;9.60;4.13;;;;;;;4.20;nan;-23933.63;5015282;28;20172;-70
2023/03/18 03:40:47;;;;;;;3.83;2.87;;;;;;;4.24;nan;-23934.91;5015217;28;20176;-73
2023/03/18 03:43:14;;;;;;;4.33;2.70;;;;;;;4.32;nan;-23937.19;5015481;28;20191;-72
2023/03/18 03:45:42;;;;;;;5.13;3.50;;;;;;;4.28;nan;-23935.91;5015184;28;20176;-72
2023/03/18 03:48:08;;;;;;;6.17;3.37;;;;;;;4.14;nan;-23932.06;5008563;28;20188;-73
2023/03/18 03:50:34;;;;;;;7.97;3.90;;;;;;;4.34;nan;-23937.63;5015184;28;20207;-72
2023/03/18 03:53:01;;;;;;;6.43;3.30;;;;;;;4.34;nan;-23937.63;5013602;28;20637;-71
2023/03/18 03:55:27;;;;;;;10.23;3.93;;;;;;;4.17;nan;-23932.78;5046619;28;20279;-73
2023/03/18 03:57:52;;;;;;;5.40;3.53;;;;;;;3.94;nan;-23926.53;5015109;28;20292;-69
2023/03/18 04:00:20;;;;;;;3.37;3.00;;;;;;;4.29;nan;-23936.34;5014054;28;20181;-69
2023/03/18 04:02:48;;;;;;;6.33;3.77;;;;;;;4.06;nan;-23929.78;5014096;28;20188;-72
2023/03/18 04:05:16;;;;;;;4.53;2.93;;;;;;;4.26;nan;-23935.50;5015646;28;20498;-72
2023/03/18 04:07:43;;;;;;;7.33;4.30;;;;;;;4.22;nan;-23934.34;5015068;28;20179;-70
2023/03/18 04:10:10;;;;;;;5.37;3.67;;;;;;;4.34;nan;-23937.63;5014658;28;20223;-73
2023/03/18 04:12:37;;;;;;;6.73;3.40;;;;;;;4.19;nan;-23933.50;5014585;28;20200;-70
2023/03/18 04:15:04;;;;;;;6.13;3.93;;;;;;;3.90;nan;-23925.38;5014298;28;20262;-72
2023/03/18 04:17:29;;;;;;;6.67;4.00;;;;;;;4.31;nan;-23936.78;5014476;28;20263;-74
2023/03/18 04:19:55;;;;;;;4.87;3.10;;;;;;;3.98;nan;-23927.50;5014362;28;20255;-71
2023/03/18 04:22:21;;;;;;;6.60;3.63;;;;;;;4.15;nan;-23932.34;5027490;28;20272;-71
2023/03/18 04:24:46;;;;;;;6.73;3.60;;;;;;;3.97;nan;-23927.22;5008484;28;20639;-72
2023/03/18 04:27:12;;;;;;;6.13;3.10;;;;;;;3.89;nan;-23925.09;5014307;28;20246;-73
2023/03/18 04:29:37;;;;;;;5.10;3.23;;;;;;;3.87;nan;-23924.53;5014366;28;20712;-74
2023/03/18 04:32:03;;;;;;;5.90;3.90;;;;;;;4.35;nan;-23938.06;5013846;28;20266;-73
2023/03/18 04:34:28;;;;;;;4.73;3.30;;;;;;;4.16;nan;-23932.63;5014591;28;20183;-72
2023/03/18 04:36:54;;;;;;;3.40;2.30;;;;;;;4.14;nan;-23931.94;5012552;28;20188;-73
2023/03/18 04:39:20;;;;;;;12.97;3.90;;;;;;;4.19;nan;-23933.34;5013636;28;20211;-72
2023/03/18 04:41:46;;;;;;;4.23;2.90;;;;;;;4.20;nan;-23933.78;5014065;28;20183;-72
2023/03/18 04:44:12;;;;;;;5.60;4.00;;;;;;;3.95;nan;-23926.66;5013890;28;20172;-72
2023/03/18 04:46:37;;;;;;;4.10;3.40;;;;;;;4.19;nan;-23933.34;5013558;28;20674;-73
2023/03/18 04:49:03;;;;;;;4.00;2.53;;;;;;;3.97;nan;-23927.38;5014045;28;20189;-70
2023/03/18 04:51:28;;;;;;;5.53;3.67;;;;;;;4.37;nan;-23938.63;5013938;28;20195;-73
2023/03/18 04:53:54;;;;;;;7.87;2.97;;;;;;;4.24;nan;-23934.91;5013586;28;20177;-71
2023/03/18 04:56:19;;;;;;;3.93;2.67;;;;;;;4.35;nan;-23938.06;5013560;28;20698;-72
2023/03/18 04:58:45;;;;;;;6.23;3.83;;;;;;;4.28;nan;-23936.06;5013375;28;20235;-73
2023/03/18 05:01:12;;;;;;;3.57;3.07;;;;;;;4.33;nan;-23937.47;5013499;28;20267;-72
2023/03/18 05:03:38;;;;;;;5.00;3.33;;;;;;;4.15;nan;-23932.22;5013568;28;20180;-73
2023/03/18 05:06:04;;;;;;;8.77;3.23;;;;;;;4.04;nan;-23929.09;5013529;28;20294;-69
2023/03/18 05:08:29;;;;;;;7.57;3.73;;;;;;;3.88;nan;-23924.66;5013844;28;20671;-74
2023/03/18 05:10:54;;;;;;;4.83;2.47;;;;;;;4.04;nan;-23929.22;5015668;28;20666;-73
2023/03/18 05:13:20;;;;;;;3.53;2.60;;;;;;;4.36;nan;-23938.34;5028650;28;20176;-71
2023/03/18 05:15:46;;;;;;;3.63;2.97;;;;;;;4.11;nan;-23931.06;5011828;28;20176;-71
2023/03/18 05:18:11;;;;;;;4.77;2.90;;;;;;;4.39;nan;-23939.06;5013180;28;20242;-71
2023/03/18 05:20:37;;;;;;;3.73;2.43;;;;;;;3.87;nan;-23924.38;5013136;28;20191;-73
2023/03/18 05:23:03;;;;;;;6.33;3.17;;;;;;;4.40;nan;-23939.47;5013554;28;20225;-71
2023/03/18 05:25:28;;;;;;;5.53;2.93;;;;;;;4.23;nan;-23934.50;5013363;28;20184;-72
2023/03/18 05:27:54;;;;;;;5.47;3.03;;;;;;;4.43;nan;-23940.34;5013326;28;20180;-71
2023/03/18 05:30:19;;;;;;;4.17;2.73;;;;;;;4.39;nan;-23939.19;5012776;28;20267;-71
2023/03/18 05:32:46;;;;;;;7.77;3.50;;;;;;;4.14;nan;-23932.06;5012769;28;20561;-70
2023/03/18 05:35:12;;;;;;;3.57;2.27;;;;;;;4.34;nan;-23937.63;5013305;28;20222;-74
2023/03/18 05:37:37;;;;;;;7.50;2.77;;;;;;;4.48;nan;-23941.63;5013173;28;20211;-71
2023/03/18 05:40:08;;;;;;;3.30;2.77;;;;;;;4.80;nan;-23950.56;5028347;28;20184;-73
2023/03/18 05:42:35;;;;;;;5.60;2.67;;;;;;;4.48;nan;-23941.63;5013185;28;20183;-77
2023/03/18 05:45:01;;;;;;;7.73;3.20;;;;;;;4.78;nan;-23950.00;5012620;28;20179;-71
2023/03/18 05:47:27;;;;;;;4.20;3.17;;;;;;;4.75;nan;-23949.16;5013182;28;20642;-71
2023/03/18 05:49:52;;;;;;;2.50;2.10;;;;;;;4.65;nan;-23946.31;5011980;28;20184;-74
2023/03/18 05:52:18;;;;;;;4.37;2.43;;;;;;;4.95;nan;-23954.84;5013335;28;20200;-72
2023/03/18 05:54:43;;;;;;;3.93;2.97;;;;;;;4.63;nan;-23945.88;5012924;28;20223;-72
2023/03/18 05:57:09;;;;;;;5.43;3.10;;;;;;;4.73;nan;-23948.59;5011470;28;20378;-72
2023/03/18 05:59:34;;;;;;;7.97;3.43;;;;;;;5.09;nan;-23958.81;5011210;28;20175;-72
2023/03/18 06:02:00;;;;;;;3.77;3.07;;;;;;;4.81;nan;-23950.84;5012855;28;20233;-71
2023/03/18 06:04:26;;;;;;;3.97;2.97;;;;;;;5.18;nan;-23961.25;5012824;28;20561;-72
2023/03/18 06:06:52;;;;;;;4.23;3.40;;;;;;;5.30;nan;-23964.66;5012756;28;20203;-74
2023/03/18 06:09:17;;;;;;;3.37;2.87;;;;;;;5.07;nan;-23958.13;5012916;28;20216;-70
2023/03/18 06:11:44;;;;;;;2.83;2.53;;;;;;;5.21;nan;-23962.09;5012625;28;20342;-74
2023/03/18 06:14:10;;;;;;;3.47;2.73;;;;;;;4.87;nan;-23952.56;5012521;28;20689;-73
2023/03/18 06:16:35;;;;;;;5.43;2.60;;;;;;;5.05;nan;-23957.53;5012677;28;20179;-74
2023/03/18 06:19:02;;;;;;;2.80;2.47;;;;;;;4.82;nan;-23951.16;5012733;28;20176;-70
2023/03/18 06:21:28;;;;;;;3.80;2.47;;;;;;;4.47;nan;-23941.31;5013791;28;20234;-73
2023/03/18 06:23:53;;;;;;;4.60;2.33;;;;;;;4.51;nan;-23942.47;5013562;28;20172;-71
2023/03/18 06:26:20;;;;;;;2.97;2.60;;;;;;;5.13;nan;-23959.81;5013196;28;20200;-73
2023/03/18 06:28:46;;;;;;;4.97;3.13;;;;;;;5.50;nan;-23970.34;5012492;28;20577;-70
2023/03/18 06:31:11;;;;;;;5.77;2.63;;;;;;;5.39;nan;-23967.06;5012527;28;20206;-70
2023/03/18 06:33:38;;;;;;;4.23;2.97;;;;;;;5.23;nan;-23962.81;5011164;28;20211;-71
2023/03/18 06:36:04;;;;;;;4.67;3.03;;;;;;;5.62;nan;-23973.75;5015096;28;20773;-73
2023/03/18 06:38:30;;;;;;;3.80;2.60;;;;;;;5.83;nan;-23979.59;5016368;28;20195;-72
2023/03/18 06:40:56;;;;;;;6.73;3.17;;;;;;;5.76;nan;-23977.75;5012348;28;20566;-71
2023/03/18 06:43:22;;;;;;;5.70;3.50;;;;;;;5.78;nan;-23978.16;5010556;28;20188;-70
2023/03/18 06:45:47;;;;;;;5.43;2.73;;;;;;;5.89;nan;-23981.28;5011886;28;20182;-72
2023/03/18 06:48:13;;;;;;;2.73;2.23;;;;;;;5.73;nan;-23976.88;5012586;28;20211;-72
2023/03/18 06:50:39;;;;;;;2.63;2.23;;;;;;;6.07;nan;-23986.25;5011887;28;20176;-73
2023/03/18 06:53:05;;;;;;;4.30;3.23;;;;;;;5.78;nan;-23978.31;5010905;28;20533;-71
2023/03/18 06:55:31;;;;;;;4.13;2.90;;;;;;;6.51;nan;-23998.63;5010249;28;20233;-73
2023/03/18 06:57:56;;;;;;;4.10;2.93;;;;;;;5.97;nan;-23983.56;5011763;28;20228;-72
2023/03/18 07:00:23;;;;;;;5.87;2.67;;;;;;;6.40;nan;-23995.63;5010086;28;20489;-72
2023/03/18 07:02:49;;;;;;;4.40;2.90;;;;;;;7.13;nan;-24016.06;5011717;28;20172;-75
2023/03/18 07:05:15;;;;;;;4.80;3.47;;;;;;;7.35;nan;-24022.16;5011823;28;20202;-72
2023/03/18 07:07:41;;;;;;;4.83;3.30;;;;;;;7.35;nan;-24022.31;5011610;28;20168;-71
2023/03/18 07:10:14;;;;;;;6.27;3.67;;;;;;;7.70;nan;-24031.94;5009838;28;20179;-72
2023/03/18 07:12:40;;;;;;;5.70;3.73;;;;;;;7.81;nan;-24035.06;5010451;28;20554;-74
2023/03/18 07:15:06;;;;;;;6.37;3.37;;;;;;;7.72;nan;-24032.66;5011512;28;20176;-74
2023/03/18 07:17:32;;;;;;;6.70;3.73;;;;;;;7.98;nan;-24039.88;5011497;28;20172;-73
2023/03/18 07:19:57;;;;;;;10.13;4.10;;;;;;;7.99;nan;-24040.16;5010305;28;20190;-73
2023/03/18 07:22:23;;;;;;;4.50;3.20;;;;;;;8.04;nan;-24041.56;5012533;28;20182;-72
2023/03/18 07:24:50;;;;;;;5.37;3.93;;;;;;;8.15;nan;-24044.56;5011324;28;20216;-73
2023/03/18 07:27:15;;;;;;;6.23;3.77;;;;;;;8.02;nan;-24041.00;5026465;28;20180;-74
2023/03/18 07:29:41;;;;;;;5.17;3.40;;;;;;;7.88;nan;-24037.03;5011509;28;20180;-74
2023/03/18 07:32:07;;;;;;;6.20;3.47;;;;;;;8.36;nan;-24050.50;5011416;28;20303;-76
2023/03/18 07:34:32;;;;;;;6.07;3.60;;;;;;;8.38;nan;-24051.22;5010279;28;20331;-75
2023/03/18 07:36:57;;;;;;;4.30;3.30;;;;;;;8.77;nan;-24062.09;5011245;28;20183;-74
2023/03/18 07:39:23;;;;;;;6.90;3.87;;;;;;;8.60;nan;-24057.28;5011407;28;20227;-76
2023/03/18 07:41:48;;;;;;;4.20;3.43;;;;;;;8.23;nan;-24046.81;5026591;28;20615;-72
2023/03/18 07:44:16;;;;;;;7.80;3.30;;;;;;;8.37;nan;-24050.94;5011633;28;20184;-72
2023/03/18 07:46:43;;;;;;;5.63;3.10;;;;;;;8.14;nan;-24044.28;5026511;28;20176;-72
2023/03/18 07:49:09;;;;;;;5.67;3.60;;;;;;;8.57;nan;-24056.31;5013551;28;20168;-73
2023/03/18 07:51:34;;;;;;;3.63;3.10;;;;;;;8.64;nan;-24058.28;5011332;28;20261;-73
2023/03/18 07:54:00;;;;;;;5.33;3.47;;;;;;;8.70;nan;-24060.13;5011137;28;20208;-76
2023/03/18 07:56:26;;;;;;;4.40;3.27;;;;;;;8.59;nan;-24057.00;5011247;28;20184;-75
2023/03/18 07:58:52;;;;;;;5.20;3.80;;;;;;;8.72;nan;-24060.69;5005330;28;20607;-73
2023/03/18 08:01:18;;;;;;;6.73;4.20;;;;;;;8.60;nan;-24057.28;5010183;28;20194;-73
2023/03/18 08:03:45;;;;;;;5.07;3.47;;;;;;;8.44;nan;-24052.78;5009888;28;20196;-72
2023/03/18 08:06:12;;;;;;;7.70;3.80;;;;;;;9.00;nan;-24068.47;5009533;28;20203;-72
2023/03/18 08:08:39;;;;;;;6.00;3.53;;;;;;;8.99;nan;-24068.19;5011140;28;20172;-73
2023/03/18 08:11:05;;;;;;;7.30;3.53;;;;;;;8.41;nan;-24051.91;5024545;28;20590;-73
2023/03/18 08:13:30;;;;;;;4.33;3.23;;;;;;;8.72;nan;-24060.69;5012344;28;20184;-72
2023/03/18 08:15:57;;;;;;;11.43;4.17;;;;;;;7.97;nan;-24039.59;5017392;28;20190;-71
2023/03/18 08:18:23;;;;;;;5.67;2.83;;;;;;;8.06;nan;-24042.00;5018168;28;20178;-75
2023/03/18 08:20:48;;;;;;;8.07;3.37;;;;;;;8.46;nan;-24053.34;5018842;28;20180;-70
2023/03/18 08:23:14;;;;;;;5.13;3.13;;;;;;;8.16;nan;-24044.84;5018967;28;20188;-72
2023/03/18 08:25:40;;;;;;;4.37;3.00;;;;;;;8.31;nan;-24049.09;5019823;28;20689;-73
2023/03/18 08:28:06;;;;;;;4.10;3.17;;;;;;;8.62;nan;-24057.72;5018502;28;20176;-75
2023/03/18 08:30:33;;;;;;;6.03;3.20;;;;;;;8.33;nan;-24049.66;5017638;28;20267;-72
2023/03/18 08:32:59;;;;;;;4.03;3.17;;;;;;;8.56;nan;-24056.16;5018067;28;20607;-74
2023/03/18 08:35:25;;;;;;;5.27;2.87;;;;;;;8.42;nan;-24052.19;5015356;28;20184;-73
2023/03/18 08:37:51;;;;;;;6.40;3.07;;;;;;;8.68;nan;-24059.56;5015914;28;20267;-72
2023/03/18 08:40:17;;;;;;;6.07;3.27;;;;;;;9.05;nan;-24069.75;5017376;28;20603;-72
2023/03/18 08:42:44;;;;;;;4.07;3.07;;;;;;;8.86;nan;-24064.66;5015643;28;20180;-72
2023/03/18 08:45:10;;;;;;;4.13;2.93;;;;;;;9.35;nan;-24078.09;5015706;28;20670;-74
2023/03/18 08:47:35;;;;;;;5.90;3.17;;;;;;;9.79;nan;-24090.38;5012773;28;20179;-73
2023/03/18 08:50:00;;;;;;;6.33;3.20;;;;;;;10.04;nan;-24097.44;5014448;28;20191;-71
2023/03/18 08:52:26;;;;;;;7.43;3.63;;;;;;;9.79;nan;-24090.53;5016570;28;20265;-74
2023/03/18 08:54:51;;;;;;;9.53;3.70;;;;;;;10.02;nan;-24096.88;5019017;28;20172;-71
2023/03/18 08:57:17;;;;;;;7.20;3.80;;;;;;;9.73;nan;-24088.97;5015656;28;20322;-75
2023/03/18 08:59:42;;;;;;;5.63;3.00;;;;;;;10.04;nan;-24097.59;5016545;28;20246;-71
2023/03/18 09:02:15;;;;;;;7.50;3.73;;;;;;;10.01;nan;-24096.59;5014685;28;20180;-72
2023/03/18 09:04:41;;;;;;;3.55;3.00;;;;;;;9.79;nan;-24090.38;5015361;28;20168;-72
2023/03/18 09:07:07;;;;;;;4.57;2.93;;;;;;;9.28;nan;-24076.25;5014881;28;20685;-73
2023/03/18 09:09:32;;;;;;;3.90;3.10;;;;;;;8.87;nan;-24064.78;5016812;28;20184;-73
2023/03/18 09:11:57;;;;;;;4.97;2.90;;;;;;;8.80;nan;-24062.81;5016433;28;20200;-72
2023/03/18 09:14:23;;;;;;;6.40;3.23;;;;;;;9.08;nan;-24070.72;5015275;28;20238;-72
2023/03/18 09:16:48;;;;;;;4.47;3.00;;;;;;;9.22;nan;-24074.56;5015191;28;20694;-72
2023/03/18 09:19:13;;;;;;;3.50;2.60;;;;;;;9.14;nan;-24072.44;5014448;28;20215;-74
2023/03/18 09:21:39;;;;;;;5.00;2.97;;;;;;;9.30;nan;-24076.94;5015036;28;20640;-73
2023/03/18 09:24:04;;;;;;;10.27;2.83;;;;;;;9.43;nan;-24080.50;5016056;28;20193;-74
2023/03/18 09:26:30;;;;;;;3.77;2.77;;;;;;;9.33;nan;-24077.66;5016553;28;20172;-72
2023/03/18 09:28:56;;;;;;;6.23;3.40;;;;;;;9.70;nan;-24088.13;5009207;28;20195;-75
2023/03/18 09:31:21;;;;;;;3.93;3.30;;;;;;;10.08;nan;-24098.56;5014811;28;20341;-71
2023/03/18 09:33:47;;;;;;;5.53;3.73;;;;;;;10.20;nan;-24101.97;5015697;28;20682;-72
2023/03/18 09:36:12;;;;;;;5.07;3.13;;;;;;;10.07;nan;-24098.28;5015002;28;20657;-73
2023/03/18 09:38:38;;;;;;;6.10;3.13;;;;;;;10.06;nan;-24098.00;5015272;28;20490;-73
2023/03/18 09:41:07;;;;;;;5.23;2.60;;;;;;;10.25;nan;-24103.38;5014344;28;20183;-71
2023/03/18 09:43:57;;;;;;;5.73;3.10;;;;;;;10.04;nan;-24097.44;5014331;28;20175;-72
2023/03/18 09:46:31;;;;;;;4.73;3.10;;;;;;;10.17;nan;-24101.13;5012967;28;20170;-73
2023/03/18 09:49:26;;;;;;;3.97;2.90;;;;;;;10.42;nan;-24108.03;5013069;28;20646;-71
2023/03/18 09:52:17;;;;;;;5.50;3.20;;;;;;;10.14;nan;-24100.41;5013175;28;20200;-70
2023/03/18 09:54:53;;;;;;;8.10;3.43;;;;;;;9.40;nan;-24079.63;5027932;28;20176;-72
2023/03/18 09:57:25;;;;;;;17.07;4.33;;;;;;;9.23;nan;-24074.97;5005471;28;20247;-71
2023/03/18 10:00:04;;;;;;;6.17;3.43;;;;;;;9.34;nan;-24077.81;5012997;28;20195;-71
2023/03/18 10:02:44;;;;;;;5.37;3.40;;;;;;;9.24;nan;-24075.13;5012823;28;20679;-72
2023/03/18 10:05:15;;;;;;;3.83;3.00;;;;;;;8.91;nan;-24065.78;5005995;28;20184;-71
2023/03/18 10:07:43;;;;;;;5.07;3.00;;;;;;;8.45;nan;-24053.06;5012440;28;20176;-70
2023/03/18 10:10:40;;;;;;;5.20;2.87;;;;;;;8.62;nan;-24057.72;5012997;28;20179;-72
2023/03/18 10:13:28;;;;;;;6.70;2.83;;;;;;;9.16;nan;-24072.84;5012350;28;20180;-74
2023/03/18 10:15:57;;;;;;;4.50;3.27;;;;;;;9.10;nan;-24071.31;5010721;28;20184;-73
2023/03/18 10:18:32;;;;;;;6.07;3.27;;;;;;;9.03;nan;-24069.19;5011028;28;20734;-73
2023/03/18 10:21:33;;;;;;;6.47;3.73;;;;;;;9.11;nan;-24071.44;5012138;28;20160;-72
2023/03/18 10:24:34;;;;;;;5.63;3.50;;;;;;;9.29;nan;-24076.66;5029756;28;20658;-73
2023/03/18 10:27:31;;;;;;;5.63;4.20;;;;;;;9.40;nan;-24079.50;5002525;28;20190;-74
2023/03/18 10:30:05;;;;;;;5.07;3.27;;;;;;;9.58;nan;-24084.72;5012596;28;20171;-74
2023/03/18 10:32:58;;;;;;;5.73;3.40;;;;;;;10.04;nan;-24097.44;5012046;28;20199;-75
2023/03/18 10:35:36;;;;;;;6.80;3.80;;;;;;;9.02;nan;-24068.91;5011719;28;20196;-72
2023/03/18 10:38:13;;;;;;;4.60;3.00;;;;;;;9.57;nan;-24084.31;5012034;28;20639;-73
2023/03/18 10:40:41;;;;;;;3.70;3.13;;;;;;;9.98;nan;-24095.88;5012277;28;20175;-73
2023/03/18 10:43:19;;;;;;;4.53;2.80;;;;;;;10.41;nan;-24107.75;5011897;28;20166;-73
2023/03/18 10:45:48;;;;;;;6.30;3.05;;;;;;;11.13;nan;-24127.91;5011985;28;20168;-74
2023/03/18 10:48:36;;;;;;;6.03;2.83;;;;;;;11.75;nan;-24145.13;5011906;28;20172;-71
2023/03/18 10:51:06;;;;;;;3.45;2.85;;;;;;;11.49;nan;-24138.06;5011700;28;20326;-74
2023/03/18 10:53:34;;;;;;;5.18;2.97;;;;;;;12.03;nan;-24152.84;5011691;28;20287;-71
2023/03/18 10:56:09;;;;;;;2.33;2.10;;;;;;;11.89;nan;-24149.19;5011600;28;20180;-76
2023/03/18 10:58:36;;;;;;;2.78;2.15;;;;;;;11.94;nan;-24150.47;5011966;28;20227;-74
2023/03/18 11:01:03;;;;;;;4.70;2.67;;;;;;;11.94;nan;-24150.47;5011721;28;20207;-75
2023/03/18 11:03:35;;;;;;;3.67;2.25;;;;;;;11.23;nan;-24130.75;5011745;28;20199;-71
2023/03/18 11:06:03;;;;;;;4.07;2.50;;;;;;;11.41;nan;-24135.81;5011863;28;20176;-71
2023/03/18 11:08:35;;;;;;;2.78;2.50;;;;;;;11.63;nan;-24141.72;5011823;28;20175;-72
2023/03/18 11:11:14;;;;;;;4.35;2.63;;;;;;;11.63;nan;-24141.88;5012189;28;20200;-74
2023/03/18 11:13:55;;;;;;;4.93;2.97;;;;;;;11.49;nan;-24138.06;5007151;28;20674;-73
2023/03/18 11:16:48;;;;;;;3.13;2.35;;;;;;;11.80;nan;-24146.53;5011726;28;20179;-74
2023/03/18 11:19:31;;;;;;;4.75;3.00;;;;;;;11.64;nan;-24142.16;5010624;28;20188;-73
2023/03/18 11:22:23;;;;;;;9.95;3.30;;;;;;;11.83;nan;-24147.38;5011575;28;20557;-70
2023/03/18 11:25:04;;;;;;;5.82;3.03;;;;;;;11.25;nan;-24131.31;5019235;28;20184;-75
2023/03/18 11:27:51;;;;;;;3.97;2.53;;;;;;;10.44;nan;-24108.59;5011492;28;20607;-74
2023/03/18 11:30:24;;;;;;;4.88;3.00;;;;;;;10.78;nan;-24118.03;5011572;28;20180;-71
2023/03/18 11:32:57;;;;;;;5.20;3.22;;;;;;;9.62;nan;-24085.72;5011105;28;20413;-73
2023/03/18 11:35:53;;;;;;;3.10;2.50;;;;;;;9.57;nan;-24084.44;5026130;28;20227;-72
2023/03/18 11:38:19;;;;;;;7.33;2.90;;;;;;;9.96;nan;-24095.31;5014743;28;20283;-72
2023/03/18 11:40:45;;;;;;;3.77;2.33;;;;;;;10.16;nan;-24100.84;5011812;28;20180;-74
2023/03/18 11:43:17;;;;;;;7.03;3.03;;;;;;;10.44;nan;-24108.75;5011388;28;20233;-73
2023/03/18 11:45:50;;;;;;;3.33;2.80;;;;;;;10.13;nan;-24099.97;5010920;28;20176;-73
2023/03/18 11:48:35;;;;;;;4.60;2.43;;;;;;;10.32;nan;-24105.22;5014418;28;20592;-71
2023/03/18 11:51:01;;;;;;;3.47;2.70;;;;;;;10.38;nan;-24106.91;5030375;28;20196;-73
2023/03/18 11:53:41;;;;;;;4.50;2.83;;;;;;;10.50;nan;-24110.28;5015167;28;20250;-71
2023/03/18 11:56:16;;;;;;;3.20;2.80;;;;;;;9.38;nan;-24079.06;5014759;28;20180;-75